sensor_id;sensor_type;location;lat;lon;timestamp;temperature;humidity
67722;SHT31;58309;45.292;11.820;2022-09-03T00:00:56;17.84;72.69
67722;SHT31;58309;45.292;11.820;2022-09-03T00:03:48;17.83;73.01
67722;SHT31;58309;45.292;11.820;2022-09-03T00:06:16;17.74;73.44
67722;SHT31;58309;45.292;11.820;2022-09-03T00:08:47;17.73;74.38
67722;SHT31;58309;45.292;11.820;2022-09-03T00:13:58;17.77;74.88
67722;SHT31;58309;45.292;11.820;2022-09-03T00:16:30;17.73;75.45
67722;SHT31;58309;45.292;11.820;2022-09-03T00:19:01;17.64;75.60
67722;SHT31;58309;45.292;11.820;2022-09-03T00:24:03;17.42;75.79
67722;SHT31;58309;45.292;11.820;2022-09-03T00:26:33;17.34;75.87
67722;SHT31;58309;45.292;11.820;2022-09-03T00:29:19;17.26;76.16
67722;SHT31;58309;45.292;11.820;2022-09-03T00:31:49;17.15;76.58
67722;SHT31;58309;45.292;11.820;2022-09-03T00:36:47;16.96;77.40
67722;SHT31;58309;45.292;11.820;2022-09-03T00:39:18;16.89;77.64
67722;SHT31;58309;45.292;11.820;2022-09-03T00:47:39;16.93;77.42
67722;SHT31;58309;45.292;11.820;2022-09-03T01:00:45;16.95;78.27
67722;SHT31;58309;45.292;11.820;2022-09-03T01:06:18;16.84;78.66
67722;SHT31;58309;45.292;11.820;2022-09-03T01:17:27;16.79;79.62
67722;SHT31;58309;45.292;11.820;2022-09-03T01:25:47;16.78;79.15
67722;SHT31;58309;45.292;11.820;2022-09-03T01:33:58;16.81;79.66
67722;SHT31;58309;45.292;11.820;2022-09-03T01:36:30;16.82;79.76
67722;SHT31;58309;45.292;11.820;2022-09-03T01:39:02;16.84;79.73
67722;SHT31;58309;45.292;11.820;2022-09-03T01:44:58;16.79;79.68
67722;SHT31;58309;45.292;11.820;2022-09-03T01:47:55;16.81;79.64
67722;SHT31;58309;45.292;11.820;2022-09-03T01:59:25;16.85;80.22
67722;SHT31;58309;45.292;11.820;2022-09-03T02:02:06;16.85;80.30
67722;SHT31;58309;45.292;11.820;2022-09-03T02:04:34;16.86;79.55
67722;SHT31;58309;45.292;11.820;2022-09-03T02:07:00;16.93;79.59
67722;SHT31;58309;45.292;11.820;2022-09-03T02:09:27;16.95;78.95
67722;SHT31;58309;45.292;11.820;2022-09-03T02:12:13;16.99;78.93
67722;SHT31;58309;45.292;11.820;2022-09-03T02:14:40;16.95;79.32
67722;SHT31;58309;45.292;11.820;2022-09-03T02:17:07;16.92;80.16
67722;SHT31;58309;45.292;11.820;2022-09-03T02:19:33;16.93;81.04
67722;SHT31;58309;45.292;11.820;2022-09-03T02:21:59;16.96;81.62
67722;SHT31;58309;45.292;11.820;2022-09-03T02:24:25;16.95;81.92
67722;SHT31;58309;45.292;11.820;2022-09-03T02:26:52;16.98;82.49
67722;SHT31;58309;45.292;11.820;2022-09-03T02:29:19;16.96;82.43
67722;SHT31;58309;45.292;11.820;2022-09-03T02:31:46;16.96;82.70
67722;SHT31;58309;45.292;11.820;2022-09-03T02:34:11;16.95;82.94
67722;SHT31;58309;45.292;11.820;2022-09-03T02:36:43;16.95;83.01
67722;SHT31;58309;45.292;11.820;2022-09-03T02:39:10;16.91;83.11
67722;SHT31;58309;45.292;11.820;2022-09-03T02:41:36;16.88;83.58
67722;SHT31;58309;45.292;11.820;2022-09-03T02:44:26;16.84;83.91
67722;SHT31;58309;45.292;11.820;2022-09-03T02:47:01;16.82;84.34
67722;SHT31;58309;45.292;11.820;2022-09-03T02:49:27;16.81;84.22
67722;SHT31;58309;45.292;11.820;2022-09-03T02:51:58;16.79;84.09
67722;SHT31;58309;45.292;11.820;2022-09-03T02:54:31;16.78;84.47
67722;SHT31;58309;45.292;11.820;2022-09-03T02:57:01;16.71;84.53
67722;SHT31;58309;45.292;11.820;2022-09-03T02:59:26;16.69;84.77
67722;SHT31;58309;45.292;11.820;2022-09-03T03:01:55;16.67;85.04
67722;SHT31;58309;45.292;11.820;2022-09-03T03:04:20;16.71;85.18
67722;SHT31;58309;45.292;11.820;2022-09-03T03:06:46;16.74;85.33
67722;SHT31;58309;45.292;11.820;2022-09-03T03:09:11;16.75;85.31
67722;SHT31;58309;45.292;11.820;2022-09-03T03:11:37;16.76;85.07
67722;SHT31;58309;45.292;11.820;2022-09-03T03:14:04;16.76;85.09
67722;SHT31;58309;45.292;11.820;2022-09-03T03:16:29;16.84;84.93
67722;SHT31;58309;45.292;11.820;2022-09-03T03:18:55;16.88;85.07
67722;SHT31;58309;45.292;11.820;2022-09-03T03:21:21;16.91;84.71
67722;SHT31;58309;45.292;11.820;2022-09-03T03:23:47;16.92;84.81
67722;SHT31;58309;45.292;11.820;2022-09-03T03:26:14;16.89;84.73
67722;SHT31;58309;45.292;11.820;2022-09-03T03:28:42;16.88;84.74
67722;SHT31;58309;45.292;11.820;2022-09-03T03:31:10;16.86;84.79
67722;SHT31;58309;45.292;11.820;2022-09-03T03:33:36;16.84;84.85
67722;SHT31;58309;45.292;11.820;2022-09-03T03:36:07;16.85;84.97
67722;SHT31;58309;45.292;11.820;2022-09-03T03:38:33;16.84;85.08
67722;SHT31;58309;45.292;11.820;2022-09-03T03:41:05;16.82;84.97
67722;SHT31;58309;45.292;11.820;2022-09-03T03:43:30;16.82;84.87
67722;SHT31;58309;45.292;11.820;2022-09-03T03:45:59;16.81;84.95
67722;SHT31;58309;45.292;11.820;2022-09-03T03:48:24;16.81;85.11
67722;SHT31;58309;45.292;11.820;2022-09-03T03:50:51;16.81;84.95
67722;SHT31;58309;45.292;11.820;2022-09-03T03:53:16;16.82;84.89
67722;SHT31;58309;45.292;11.820;2022-09-03T03:55:42;16.78;84.84
67722;SHT31;58309;45.292;11.820;2022-09-03T03:58:07;16.75;84.71
67722;SHT31;58309;45.292;11.820;2022-09-03T04:00:33;16.79;84.65
67722;SHT31;58309;45.292;11.820;2022-09-03T04:03:01;16.84;84.66
67722;SHT31;58309;45.292;11.820;2022-09-03T04:05:26;16.81;84.87
67722;SHT31;58309;45.292;11.820;2022-09-03T04:07:52;16.78;84.94
67722;SHT31;58309;45.292;11.820;2022-09-03T04:10:17;16.78;84.69
67722;SHT31;58309;45.292;11.820;2022-09-03T04:12:43;16.78;84.86
67722;SHT31;58309;45.292;11.820;2022-09-03T04:15:09;16.74;84.91
67722;SHT31;58309;45.292;11.820;2022-09-03T04:17:34;16.74;84.97
67722;SHT31;58309;45.292;11.820;2022-09-03T04:20:00;16.76;85.06
67722;SHT31;58309;45.292;11.820;2022-09-03T04:22:27;16.81;84.78
67722;SHT31;58309;45.292;11.820;2022-09-03T04:24:53;16.79;84.95
67722;SHT31;58309;45.292;11.820;2022-09-03T04:27:19;16.75;84.88
67722;SHT31;58309;45.292;11.820;2022-09-03T04:29:45;16.76;84.94
67722;SHT31;58309;45.292;11.820;2022-09-03T04:32:10;16.75;85.34
67722;SHT31;58309;45.292;11.820;2022-09-03T04:34:54;16.81;85.02
67722;SHT31;58309;45.292;11.820;2022-09-03T04:37:20;16.85;84.97
67722;SHT31;58309;45.292;11.820;2022-09-03T04:39:45;16.91;84.80
67722;SHT31;58309;45.292;11.820;2022-09-03T04:42:11;16.96;84.79
67722;SHT31;58309;45.292;11.820;2022-09-03T04:44:36;16.98;84.54
67722;SHT31;58309;45.292;11.820;2022-09-03T04:47:03;17.06;84.46
67722;SHT31;58309;45.292;11.820;2022-09-03T04:49:29;17.12;84.03
67722;SHT31;58309;45.292;11.820;2022-09-03T04:51:55;17.23;83.45
67722;SHT31;58309;45.292;11.820;2022-09-03T04:54:21;17.29;83.45
67722;SHT31;58309;45.292;11.820;2022-09-03T04:56:46;17.42;83.22
67722;SHT31;58309;45.292;11.820;2022-09-03T04:59:12;17.46;83.11
67722;SHT31;58309;45.292;11.820;2022-09-03T05:01:38;17.49;82.96
67722;SHT31;58309;45.292;11.820;2022-09-03T05:04:06;17.51;82.92
67722;SHT31;58309;45.292;11.820;2022-09-03T05:06:32;17.53;83.00
67722;SHT31;58309;45.292;11.820;2022-09-03T05:08:59;17.59;82.72
67722;SHT31;58309;45.292;11.820;2022-09-03T05:11:26;17.70;81.98
67722;SHT31;58309;45.292;11.820;2022-09-03T05:13:54;17.75;82.24
67722;SHT31;58309;45.292;11.820;2022-09-03T05:16:21;17.88;81.71
67722;SHT31;58309;45.292;11.820;2022-09-03T05:18:51;17.97;80.61
67722;SHT31;58309;45.292;11.820;2022-09-03T05:21:17;18.05;80.74
67722;SHT31;58309;45.292;11.820;2022-09-03T05:23:45;18.16;79.90
67722;SHT31;58309;45.292;11.820;2022-09-03T05:26:16;18.25;79.11
67722;SHT31;58309;45.292;11.820;2022-09-03T05:28:44;18.34;79.11
67722;SHT31;58309;45.292;11.820;2022-09-03T05:31:15;18.42;78.47
67722;SHT31;58309;45.292;11.820;2022-09-03T05:33:46;18.49;78.30
67722;SHT31;58309;45.292;11.820;2022-09-03T05:36:17;18.55;76.98
67722;SHT31;58309;45.292;11.820;2022-09-03T05:38:43;18.60;77.21
67722;SHT31;58309;45.292;11.820;2022-09-03T05:41:11;18.66;77.71
67722;SHT31;58309;45.292;11.820;2022-09-03T05:43:37;18.72;77.30
67722;SHT31;58309;45.292;11.820;2022-09-03T05:46:09;18.79;75.98
67722;SHT31;58309;45.292;11.820;2022-09-03T05:48:37;18.83;75.27
67722;SHT31;58309;45.292;11.820;2022-09-03T05:51:07;18.90;75.57
67722;SHT31;58309;45.292;11.820;2022-09-03T05:53:36;18.93;75.53
67722;SHT31;58309;45.292;11.820;2022-09-03T05:56:07;19.02;75.04
67722;SHT31;58309;45.292;11.820;2022-09-03T05:58:37;19.04;74.98
67722;SHT31;58309;45.292;11.820;2022-09-03T06:03:43;19.17;75.03
67722;SHT31;58309;45.292;11.820;2022-09-03T06:06:09;19.27;74.76
67722;SHT31;58309;45.292;11.820;2022-09-03T06:08:36;19.38;74.37
67722;SHT31;58309;45.292;11.820;2022-09-03T06:11:05;19.48;74.50
67722;SHT31;58309;45.292;11.820;2022-09-03T06:13:39;19.54;73.15
67722;SHT31;58309;45.292;11.820;2022-09-03T06:16:06;19.64;73.06
67722;SHT31;58309;45.292;11.820;2022-09-03T06:18:32;19.76;73.04
67722;SHT31;58309;45.292;11.820;2022-09-03T06:21:03;19.92;73.22
67722;SHT31;58309;45.292;11.820;2022-09-03T06:23:30;20.06;72.64
67722;SHT31;58309;45.292;11.820;2022-09-03T06:26:09;20.16;71.29
67722;SHT31;58309;45.292;11.820;2022-09-03T06:28:36;20.27;70.94
67722;SHT31;58309;45.292;11.820;2022-09-03T06:31:04;20.36;70.57
67722;SHT31;58309;45.292;11.820;2022-09-03T06:33:31;20.32;70.19
67722;SHT31;58309;45.292;11.820;2022-09-03T06:35:58;20.37;70.22
67722;SHT31;58309;45.292;11.820;2022-09-03T06:38:30;20.48;70.10
67722;SHT31;58309;45.292;11.820;2022-09-03T06:40:58;20.43;70.08
67722;SHT31;58309;45.292;11.820;2022-09-03T06:43:30;20.46;70.38
67722;SHT31;58309;45.292;11.820;2022-09-03T06:46:05;20.36;70.61
67722;SHT31;58309;45.292;11.820;2022-09-03T06:48:32;20.37;71.26
67722;SHT31;58309;45.292;11.820;2022-09-03T06:51:07;20.34;70.95
67722;SHT31;58309;45.292;11.820;2022-09-03T06:53:35;20.32;71.65
67722;SHT31;58309;45.292;11.820;2022-09-03T06:56:03;20.36;71.36
67722;SHT31;58309;45.292;11.820;2022-09-03T06:58:32;20.41;71.21
67722;SHT31;58309;45.292;11.820;2022-09-03T07:01:17;20.48;71.22
67722;SHT31;58309;45.292;11.820;2022-09-03T07:03:45;20.50;71.42
67722;SHT31;58309;45.292;11.820;2022-09-03T07:06:16;20.51;70.87
67722;SHT31;58309;45.292;11.820;2022-09-03T07:08:43;20.55;71.36
67722;SHT31;58309;45.292;11.820;2022-09-03T07:11:16;20.57;71.03
67722;SHT31;58309;45.292;11.820;2022-09-03T07:13:45;20.55;71.34
67722;SHT31;58309;45.292;11.820;2022-09-03T07:16:26;20.55;71.36
67722;SHT31;58309;45.292;11.820;2022-09-03T07:18:54;20.67;71.01
67722;SHT31;58309;45.292;11.820;2022-09-03T07:21:26;20.74;71.06
67722;SHT31;58309;45.292;11.820;2022-09-03T07:23:52;20.90;69.90
67722;SHT31;58309;45.292;11.820;2022-09-03T07:26:25;21.02;69.89
67722;SHT31;58309;45.292;11.820;2022-09-03T07:28:52;21.12;69.40
67722;SHT31;58309;45.292;11.820;2022-09-03T07:31:22;21.18;70.06
67722;SHT31;58309;45.292;11.820;2022-09-03T07:33:55;21.18;70.30
67722;SHT31;58309;45.292;11.820;2022-09-03T07:36:22;21.19;69.95
67722;SHT31;58309;45.292;11.820;2022-09-03T07:38:48;21.33;69.71
67722;SHT31;58309;45.292;11.820;2022-09-03T07:41:14;21.38;69.29
67722;SHT31;58309;45.292;11.820;2022-09-03T07:43:44;21.50;69.66
67722;SHT31;58309;45.292;11.820;2022-09-03T07:46:21;21.64;68.97
67722;SHT31;58309;45.292;11.820;2022-09-03T07:48:55;21.80;68.20
67722;SHT31;58309;45.292;11.820;2022-09-03T07:51:22;22.01;68.40
67722;SHT31;58309;45.292;11.820;2022-09-03T07:53:52;22.21;68.20
67722;SHT31;58309;45.292;11.820;2022-09-03T07:56:18;22.45;67.28
67722;SHT31;58309;45.292;11.820;2022-09-03T07:58:43;22.69;66.04
67722;SHT31;58309;45.292;11.820;2022-09-03T08:01:20;22.91;65.40
67722;SHT31;58309;45.292;11.820;2022-09-03T08:03:47;23.14;65.35
67722;SHT31;58309;45.292;11.820;2022-09-03T08:06:15;23.42;63.99
67722;SHT31;58309;45.292;11.820;2022-09-03T08:08:41;23.46;64.21
67722;SHT31;58309;45.292;11.820;2022-09-03T08:11:12;23.53;63.83
67722;SHT31;58309;45.292;11.820;2022-09-03T08:13:40;23.40;64.05
67722;SHT31;58309;45.292;11.820;2022-09-03T08:16:16;23.43;65.08
67722;SHT31;58309;45.292;11.820;2022-09-03T08:18:45;23.42;63.95
67722;SHT31;58309;45.292;11.820;2022-09-03T08:21:16;23.33;64.15
67722;SHT31;58309;45.292;11.820;2022-09-03T08:23:47;23.51;63.86
67722;SHT31;58309;45.292;11.820;2022-09-03T08:26:14;23.65;63.37
67722;SHT31;58309;45.292;11.820;2022-09-03T08:28:41;23.97;63.77
67722;SHT31;58309;45.292;11.820;2022-09-03T08:31:08;24.39;63.12
67722;SHT31;58309;45.292;11.820;2022-09-03T08:33:38;24.60;60.55
67722;SHT31;58309;45.292;11.820;2022-09-03T08:36:14;24.97;60.27
67722;SHT31;58309;45.292;11.820;2022-09-03T08:38:41;25.44;59.52
67722;SHT31;58309;45.292;11.820;2022-09-03T08:41:13;25.82;57.60
67722;SHT31;58309;45.292;11.820;2022-09-03T08:46:14;26.99;53.99
67722;SHT31;58309;45.292;11.820;2022-09-03T08:48:41;27.38;53.67
67722;SHT31;58309;45.292;11.820;2022-09-03T08:51:09;27.45;52.24
67722;SHT31;58309;45.292;11.820;2022-09-03T08:53:43;27.76;51.72
67722;SHT31;58309;45.292;11.820;2022-09-03T08:56:23;28.42;51.18
67722;SHT31;58309;45.292;11.820;2022-09-03T08:58:50;28.11;50.75
67722;SHT31;58309;45.292;11.820;2022-09-03T09:10:02;28.83;49.13
67722;SHT31;58309;45.292;11.820;2022-09-03T09:21:29;30.05;46.92
67722;SHT31;58309;45.292;11.820;2022-09-03T09:24:02;30.08;46.47
67722;SHT31;58309;45.292;11.820;2022-09-03T09:26:29;30.11;47.43
67722;SHT31;58309;45.292;11.820;2022-09-03T09:29:07;29.74;48.70
67722;SHT31;58309;45.292;11.820;2022-09-03T09:31:37;29.37;47.59
67722;SHT31;58309;45.292;11.820;2022-09-03T09:34:06;29.40;49.20
67722;SHT31;58309;45.292;11.820;2022-09-03T09:36:41;29.85;47.10
67722;SHT31;58309;45.292;11.820;2022-09-03T09:39:11;29.91;48.41
67722;SHT31;58309;45.292;11.820;2022-09-03T09:41:40;29.85;49.23
67722;SHT31;58309;45.292;11.820;2022-09-03T09:44:07;29.94;48.42
67722;SHT31;58309;45.292;11.820;2022-09-03T09:46:37;29.43;49.62
67722;SHT31;58309;45.292;11.820;2022-09-03T09:49:21;29.50;50.15
67722;SHT31;58309;45.292;11.820;2022-09-03T09:52:04;29.85;48.48
67722;SHT31;58309;45.292;11.820;2022-09-03T09:54:30;29.91;48.26
67722;SHT31;58309;45.292;11.820;2022-09-03T09:57:01;30.33;48.35
67722;SHT31;58309;45.292;11.820;2022-09-03T09:59:28;30.39;49.17
67722;SHT31;58309;45.292;11.820;2022-09-03T10:02:10;29.54;50.38
67722;SHT31;58309;45.292;11.820;2022-09-03T10:04:36;29.04;49.42
67722;SHT31;58309;45.292;11.820;2022-09-03T10:07:35;29.38;50.43
67722;SHT31;58309;45.292;11.820;2022-09-03T10:12:32;29.27;49.92
67722;SHT31;58309;45.292;11.820;2022-09-03T10:18:05;29.50;50.64
67722;SHT31;58309;45.292;11.820;2022-09-03T10:20:38;29.82;48.85
67722;SHT31;58309;45.292;11.820;2022-09-03T10:23:19;29.54;49.34
67722;SHT31;58309;45.292;11.820;2022-09-03T10:28:20;29.20;50.81
67722;SHT31;58309;45.292;11.820;2022-09-03T10:33:26;28.92;50.35
67722;SHT31;58309;45.292;11.820;2022-09-03T10:38:37;28.66;50.39
67722;SHT31;58309;45.292;11.820;2022-09-03T10:44:28;28.56;51.38
67722;SHT31;58309;45.292;11.820;2022-09-03T10:50:21;28.75;52.76
67722;SHT31;58309;45.292;11.820;2022-09-03T10:55:59;28.68;54.20
67722;SHT31;58309;45.292;11.820;2022-09-03T10:58:44;29.07;51.47
67722;SHT31;58309;45.292;11.820;2022-09-03T11:06:39;29.57;51.27
67722;SHT31;58309;45.292;11.820;2022-09-03T11:09:40;29.31;51.07
67722;SHT31;58309;45.292;11.820;2022-09-03T11:12:29;28.79;52.36
67722;SHT31;58309;45.292;11.820;2022-09-03T11:15:00;28.69;54.52
67722;SHT31;58309;45.292;11.820;2022-09-03T11:17:37;28.51;53.79
67722;SHT31;58309;45.292;11.820;2022-09-03T11:20:16;28.68;52.10
67722;SHT31;58309;45.292;11.820;2022-09-03T11:22:43;28.24;54.92
67722;SHT31;58309;45.292;11.820;2022-09-03T11:25:13;28.11;55.12
67722;SHT31;58309;45.292;11.820;2022-09-03T11:27:55;28.03;54.89
67722;SHT31;58309;45.292;11.820;2022-09-03T11:30:56;27.76;55.61
67722;SHT31;58309;45.292;11.820;2022-09-03T11:33:26;28.68;54.52
67722;SHT31;58309;45.292;11.820;2022-09-03T11:36:00;29.13;52.92
67722;SHT31;58309;45.292;11.820;2022-09-03T11:38:28;29.03;52.85
67722;SHT31;58309;45.292;11.820;2022-09-03T11:43:48;28.85;54.27
67722;SHT31;58309;45.292;11.820;2022-09-03T11:48:47;30.18;51.03
67722;SHT31;58309;45.292;11.820;2022-09-03T11:54:01;31.00;49.40
67722;SHT31;58309;45.292;11.820;2022-09-03T11:56:29;30.72;50.81
67722;SHT31;58309;45.292;11.820;2022-09-03T12:01:43;29.23;54.38
67722;SHT31;58309;45.292;11.820;2022-09-03T12:04:14;28.85;55.51
67722;SHT31;58309;45.292;11.820;2022-09-03T12:12:21;27.15;59.56
67722;SHT31;58309;45.292;11.820;2022-09-03T12:18:15;27.01;60.36
67722;SHT31;58309;45.292;11.820;2022-09-03T12:20:59;27.38;59.32
67722;SHT31;58309;45.292;11.820;2022-09-03T12:23:32;27.93;58.98
67722;SHT31;58309;45.292;11.820;2022-09-03T12:26:12;28.22;58.36
67722;SHT31;58309;45.292;11.820;2022-09-03T12:28:39;28.55;57.80
67722;SHT31;58309;45.292;11.820;2022-09-03T12:33:46;28.65;56.66
67722;SHT31;58309;45.292;11.820;2022-09-03T12:36:12;28.44;56.91
67722;SHT31;58309;45.292;11.820;2022-09-03T12:38:38;28.22;57.57
67722;SHT31;58309;45.292;11.820;2022-09-03T12:41:03;28.04;57.77
67722;SHT31;58309;45.292;11.820;2022-09-03T12:43:29;27.83;58.53
67722;SHT31;58309;45.292;11.820;2022-09-03T12:45:55;27.76;58.57
67722;SHT31;58309;45.292;11.820;2022-09-03T12:48:21;27.54;58.35
67722;SHT31;58309;45.292;11.820;2022-09-03T12:50:48;27.42;60.23
67722;SHT31;58309;45.292;11.820;2022-09-03T12:53:23;27.32;59.22
67722;SHT31;58309;45.292;11.820;2022-09-03T12:55:54;27.13;60.25
67722;SHT31;58309;45.292;11.820;2022-09-03T13:03:51;27.15;59.83
67722;SHT31;58309;45.292;11.820;2022-09-03T13:06:27;27.23;60.34
67722;SHT31;58309;45.292;11.820;2022-09-03T13:08:58;27.38;59.48
67722;SHT31;58309;45.292;11.820;2022-09-03T13:11:26;27.42;59.06
67722;SHT31;58309;45.292;11.820;2022-09-03T13:14:12;27.45;58.95
67722;SHT31;58309;45.292;11.820;2022-09-03T13:30:14;27.46;57.12
67722;SHT31;58309;45.292;11.820;2022-09-03T13:32:58;27.62;57.56
67722;SHT31;58309;45.292;11.820;2022-09-03T13:35:39;27.62;56.94
67722;SHT31;58309;45.292;11.820;2022-09-03T13:38:17;27.56;57.32
67722;SHT31;58309;45.292;11.820;2022-09-03T13:40:51;27.49;57.92
67722;SHT31;58309;45.292;11.820;2022-09-03T13:43:36;27.49;57.54
67722;SHT31;58309;45.292;11.820;2022-09-03T13:46:28;27.53;56.92
67722;SHT31;58309;45.292;11.820;2022-09-03T13:49:01;27.49;56.31
67722;SHT31;58309;45.292;11.820;2022-09-03T13:51:55;27.43;56.11
67722;SHT31;58309;45.292;11.820;2022-09-03T13:54:30;27.35;57.13
67722;SHT31;58309;45.292;11.820;2022-09-03T13:57:03;27.29;57.23
67722;SHT31;58309;45.292;11.820;2022-09-03T13:59:52;27.33;57.89
67722;SHT31;58309;45.292;11.820;2022-09-03T14:02:32;27.23;56.12
67722;SHT31;58309;45.292;11.820;2022-09-03T14:05:24;27.11;57.68
67722;SHT31;58309;45.292;11.820;2022-09-03T14:08:00;27.08;57.41
67722;SHT31;58309;45.292;11.820;2022-09-03T14:10:51;27.04;57.33
67722;SHT31;58309;45.292;11.820;2022-09-03T14:14:05;27.12;58.26
67722;SHT31;58309;45.292;11.820;2022-09-03T14:16:43;27.25;57.16
67722;SHT31;58309;45.292;11.820;2022-09-03T14:19:20;27.36;58.71
67722;SHT31;58309;45.292;11.820;2022-09-03T14:22:10;27.41;57.32
67722;SHT31;58309;45.292;11.820;2022-09-03T14:24:46;27.43;56.21
67722;SHT31;58309;45.292;11.820;2022-09-03T14:27:25;27.45;54.24
67722;SHT31;58309;45.292;11.820;2022-09-03T14:33:08;27.45;54.21
67722;SHT31;58309;45.292;11.820;2022-09-03T14:35:48;27.46;55.36
67722;SHT31;58309;45.292;11.820;2022-09-03T14:52:13;27.09;54.04
67722;SHT31;58309;45.292;11.820;2022-09-03T14:54:49;27.04;55.57
67722;SHT31;58309;45.292;11.820;2022-09-03T15:00:16;26.92;54.52
67722;SHT31;58309;45.292;11.820;2022-09-03T15:06:10;26.90;54.86
67722;SHT31;58309;45.292;11.820;2022-09-03T15:12:00;26.88;56.35
67722;SHT31;58309;45.292;11.820;2022-09-03T15:14:48;26.90;55.73
67722;SHT31;58309;45.292;11.820;2022-09-03T15:30:35;26.77;57.21
67722;SHT31;58309;45.292;11.820;2022-09-03T15:38:49;26.45;56.96
67722;SHT31;58309;45.292;11.820;2022-09-03T15:41:46;26.43;57.90
67722;SHT31;58309;45.292;11.820;2022-09-03T15:44:16;26.54;57.64
67722;SHT31;58309;45.292;11.820;2022-09-03T15:52:36;26.29;57.61
67722;SHT31;58309;45.292;11.820;2022-09-03T15:55:14;26.24;57.07
67722;SHT31;58309;45.292;11.820;2022-09-03T16:00:30;26.06;57.31
67722;SHT31;58309;45.292;11.820;2022-09-03T16:03:08;26.00;57.02
67722;SHT31;58309;45.292;11.820;2022-09-03T16:05:57;25.99;57.84
67722;SHT31;58309;45.292;11.820;2022-09-03T16:08:52;25.90;57.30
67722;SHT31;58309;45.292;11.820;2022-09-03T16:14:17;25.86;57.75
67722;SHT31;58309;45.292;11.820;2022-09-03T16:22:27;25.62;57.54
67722;SHT31;58309;45.292;11.820;2022-09-03T16:25:15;25.52;58.26
67722;SHT31;58309;45.292;11.820;2022-09-03T16:39:15;24.86;60.72
67722;SHT31;58309;45.292;11.820;2022-09-03T16:41:52;24.86;61.20
67722;SHT31;58309;45.292;11.820;2022-09-03T16:44:30;24.80;62.17
67722;SHT31;58309;45.292;11.820;2022-09-03T16:55:12;24.69;62.15
67722;SHT31;58309;45.292;11.820;2022-09-03T17:00:21;24.62;62.50
67722;SHT31;58309;45.292;11.820;2022-09-03T17:03:00;24.62;62.98
67722;SHT31;58309;45.292;11.820;2022-09-03T17:12:07;24.36;64.81
67722;SHT31;58309;45.292;11.820;2022-09-03T17:17:29;24.15;65.58
67722;SHT31;58309;45.292;11.820;2022-09-03T17:20:11;24.08;66.04
67722;SHT31;58309;45.292;11.820;2022-09-03T17:25:13;23.97;66.77
67722;SHT31;58309;45.292;11.820;2022-09-03T17:36:22;23.54;68.55
67722;SHT31;58309;45.292;11.820;2022-09-03T17:39:11;23.44;68.85
67722;SHT31;58309;45.292;11.820;2022-09-03T17:41:45;23.37;68.91
67722;SHT31;58309;45.292;11.820;2022-09-03T17:44:37;23.33;68.98
67722;SHT31;58309;45.292;11.820;2022-09-03T17:52:49;23.16;68.62
67722;SHT31;58309;45.292;11.820;2022-09-03T17:55:31;23.12;68.51
67722;SHT31;58309;45.292;11.820;2022-09-03T18:03:52;22.99;68.16
67722;SHT31;58309;45.292;11.820;2022-09-03T18:09:21;22.88;68.36
67722;SHT31;58309;45.292;11.820;2022-09-03T18:14:32;22.79;68.32
67722;SHT31;58309;45.292;11.820;2022-09-03T18:19:47;22.71;68.50
67722;SHT31;58309;45.292;11.820;2022-09-03T18:22:51;22.62;68.84
67722;SHT31;58309;45.292;11.820;2022-09-03T18:25:39;22.56;68.99
67722;SHT31;58309;45.292;11.820;2022-09-03T18:28:38;22.52;69.10
67722;SHT31;58309;45.292;11.820;2022-09-03T18:31:23;22.48;69.30
67722;SHT31;58309;45.292;11.820;2022-09-03T18:34:07;22.42;71.76
67722;SHT31;58309;45.292;11.820;2022-09-03T18:36:52;22.24;73.65
67722;SHT31;58309;45.292;11.820;2022-09-03T18:39:39;22.03;73.98
67722;SHT31;58309;45.292;11.820;2022-09-03T18:51:30;21.50;74.21
67722;SHT31;58309;45.292;11.820;2022-09-03T18:57:20;21.31;74.70
67722;SHT31;58309;45.292;11.820;2022-09-03T19:00:13;21.18;75.43
67722;SHT31;58309;45.292;11.820;2022-09-03T19:03:14;20.99;77.43
67722;SHT31;58309;45.292;11.820;2022-09-03T19:06:17;20.88;77.55
67722;SHT31;58309;45.292;11.820;2022-09-03T19:09:43;20.81;77.29
67722;SHT31;58309;45.292;11.820;2022-09-03T19:12:41;20.74;77.58
67722;SHT31;58309;45.292;11.820;2022-09-03T19:15:30;20.75;77.80
67722;SHT31;58309;45.292;11.820;2022-09-03T19:24:08;20.54;78.82
67722;SHT31;58309;45.292;11.820;2022-09-03T19:27:04;20.53;78.99
67722;SHT31;58309;45.292;11.820;2022-09-03T19:30:01;20.43;79.26
67722;SHT31;58309;45.292;11.820;2022-09-03T19:33:12;20.39;79.63
67722;SHT31;58309;45.292;11.820;2022-09-03T19:55:47;20.10;80.45
67722;SHT31;58309;45.292;11.820;2022-09-03T19:58:35;20.09;80.58
67722;SHT31;58309;45.292;11.820;2022-09-03T20:01:34;20.03;81.06
67722;SHT31;58309;45.292;11.820;2022-09-03T20:04:22;19.99;81.32
67722;SHT31;58309;45.292;11.820;2022-09-03T20:07:09;19.96;81.30
67722;SHT31;58309;45.292;11.820;2022-09-03T20:09:55;19.92;81.45
67722;SHT31;58309;45.292;11.820;2022-09-03T20:12:45;19.87;81.37
67722;SHT31;58309;45.292;11.820;2022-09-03T20:15:12;19.86;81.32
67722;SHT31;58309;45.292;11.820;2022-09-03T20:23:01;19.79;82.53
67722;SHT31;58309;45.292;11.820;2022-09-03T20:36:27;19.90;82.91
67722;SHT31;58309;45.292;11.820;2022-09-03T20:44:52;20.00;82.07
67722;SHT31;58309;45.292;11.820;2022-09-03T20:55:50;19.90;81.75
67722;SHT31;58309;45.292;11.820;2022-09-03T21:06:32;19.89;82.55
67722;SHT31;58309;45.292;11.820;2022-09-03T21:12:15;19.74;83.10
67722;SHT31;58309;45.292;11.820;2022-09-03T21:20:12;19.35;84.20
67722;SHT31;58309;45.292;11.820;2022-09-03T21:25:36;19.10;84.64
67722;SHT31;58309;45.292;11.820;2022-09-03T21:28:13;19.00;85.03
67722;SHT31;58309;45.292;11.820;2022-09-03T21:30:42;18.96;85.31
67722;SHT31;58309;45.292;11.820;2022-09-03T21:33:25;18.90;85.19
67722;SHT31;58309;45.292;11.820;2022-09-03T21:36:19;18.86;85.18
67722;SHT31;58309;45.292;11.820;2022-09-03T21:38:46;18.84;85.22
67722;SHT31;58309;45.292;11.820;2022-09-03T21:41:23;18.76;85.77
67722;SHT31;58309;45.292;11.820;2022-09-03T21:44:00;18.77;86.57
67722;SHT31;58309;45.292;11.820;2022-09-03T21:46:33;18.76;86.54
67722;SHT31;58309;45.292;11.820;2022-09-03T21:49:08;18.73;86.48
67722;SHT31;58309;45.292;11.820;2022-09-03T21:51:55;18.76;86.69
67722;SHT31;58309;45.292;11.820;2022-09-03T21:54:30;18.76;86.62
67722;SHT31;58309;45.292;11.820;2022-09-03T22:02:28;18.83;87.34
67722;SHT31;58309;45.292;11.820;2022-09-03T22:04:56;18.83;87.35